x

Louisiana Offshore Oil Port, La (lopl1) Wave Buoy

5:25am - Tue 25th Jul 2017 All times are CDT. -5 hours from GMT.

  • Sig Wave height 1.6ft
  • Wind
    13mph, 15mph gusts
  • Air Temp 83°f
  • Sea Pressure 1019.1mb
  • Louisiana Offshore Oil Port, La
  • Louisiana Offshore Oil Port, La

More Historic Weather Station data

Upgrade to MSW Pro to gain access to the past 30 days of data for over 8000 Wavebouys and Weather Stations around the globe.

Join Pro

Comparision Forecast

View Surf forecast
   
Tue 07/25 5:25am 1.6ft 13 15 mph 1019.1mb 83f
4:25am 2ft 9 14 mph 1019.1mb 83f
3:25am 1.6ft 10 14 mph 1019.1mb 83f
2:25am 1.6ft 9 11 mph 1018.1mb 83f
1:25am 1.6ft 9 10 mph 1019.1mb 84f
12:25am 1.6ft 5 8 mph 1019.1mb 84f
Mon 07/24 11:25pm 1.6ft 5 10 mph 1019.1mb 85f
10:25pm 1.6ft 6 9 mph 1018.1mb 85f
9:25pm 1.6ft 8 13 mph 1018.1mb 85f
8:20pm 2ft 14 17 mph 1017.1mb 85f
7:20pm 2ft 10 14 mph 1017.1mb 85f
6:20pm 2ft 6 10 mph 1017.1mb 86f
5:20pm 2.5ft 8 13 mph 1017.1mb 86f
4:20pm 2.5ft 13 16 mph 1017.1mb 85f
3:20pm 2.5ft 14 18 mph 1017.1mb 86f
2:20pm 2.5ft 11 15 mph 1017.1mb 86f
1:20pm 2.5ft 13 18 mph 1018.1mb 86f
12:20pm 2.5ft 7 11 mph 1017.1mb 87f
11:20am 2.5ft 9 17 mph 1017.1mb 86f
10:20am 2.5ft 13 23 mph 1017.1mb 85f
9:20am 3ft 21 25 mph 1017.1mb 85f
8:20am 2.5ft 20 24 mph 1016.1mb 85f
7:20am 1.6ft 16 25 mph 1016.1mb 85f
6:20am 1.6ft 11 15 mph 1016.1mb 83f
5:20am 2ft 11 16 mph 1016.1mb 83f
4:20am 2ft 15 20 mph 1016.1mb 83f
3:20am 2ft 17 22 mph 1016.1mb 83f
2:20am 1.6ft 17 21 mph 1016.1mb 82f
1:20am 1.6ft 16 21 mph 1016.1mb 82f
12:20am 1.3ft 16 18 mph 1016.1mb 82f
Sun 07/23 11:20pm 1.3ft 11 15 mph 1015.1mb 82f
10:20pm 1.3ft 11 14 mph 1015.1mb 82f
9:20pm 1.3ft 8 13 mph 1014.1mb 82f
8:20pm 1.3ft 5 8 mph 1015.1mb 82f
7:20pm 1.6ft 6 8 mph 1014.1mb 81f
6:20pm 1.6ft 6 8 mph 1015.1mb 82f
5:20pm 1.3ft 6 9 mph 1015.1mb 80f
4:20pm 1.6ft 9 13 mph 1015.1mb 80f
3:20pm 2ft 9 13 mph 1016.1mb 78f
2:20pm 1.6ft 5 6 mph 1017.1mb 77f
1:15pm 2ft 7 13 mph 1017.1mb 80f
12:15pm 2.5ft 10 14 mph 1017.1mb 76f
11:15am 2.5ft 25 34 mph 1017.1mb 79f
10:15am 2ft 10 16 mph 1016.1mb 85f
9:15am 1.6ft 11 14 mph 1016.1mb 84f
8:15am 1.6ft 13 15 mph 1016.1mb 83f
7:15am 1.6ft 13 16 mph 1016.1mb 83f
6:15am 1.6ft 14 18 mph 1016.1mb 83f
5:15am 1.6ft 14 17 mph 1015.1mb 83f
4:15am 1.6ft 15 20 mph 1015.1mb 82f
3:15am 1.6ft 14 18 mph 1015.1mb 82f
2:15am 1.6ft 13 16 mph 1015.1mb 82f
1:15am 1.6ft 7 13 mph 1016.1mb 83f
12:15am 2ft 6 9 mph 1016.1mb 83f
Sat 07/22 11:15pm 2ft 8 14 mph 1016.1mb 83f
10:15pm 2ft 7 13 mph 1016.1mb 83f
9:15pm 1.6ft 9 15 mph 1016.1mb 83f
8:15pm 2ft 7 15 mph 1015.1mb 82f
7:15pm 2.5ft 6 11 mph 1015.1mb 83f
6:15pm 2.5ft 10 20 mph 1015.1mb 85f
5:15pm 2.5ft 8 14 mph 1016.1mb 83f
4:15pm 2.5ft 11 17 mph 1015.1mb 82f
3:15pm 2ft 10 21 mph 1016.1mb 82f
2:15pm 1.6ft 20 22 mph 1016.1mb 83f
1:15pm 1ft 15 17 mph 1017.1mb 84f
12:15pm 1ft 1 3 mph 1017.1mb 85f
11:15am 1ft 1 3 mph 1017.1mb 86f
10:15am 1ft 2 3 mph 1017.1mb 85f
9:15am 1ft 3 6 mph 1017.1mb 85f
8:15am 1ft 2 6 mph 1017.1mb 85f
7:10am 1ft 5 7 mph 1017.1mb 84f
6:10am 1ft 7 9 mph 1016.1mb 84f
5:10am 1ft 10 14 mph 1016.1mb 84f
4:10am 1ft 10 14 mph 1015.1mb 84f
3:10am 1ft 11 14 mph 1015.1mb 84f
2:10am 1.3ft 13 15 mph 1015.1mb 84f
1:10am 1.3ft 14 17 mph 1016.1mb 84f
12:10am 1ft 13 15 mph 1016.1mb 84f
Fri 07/21 11:10pm 1ft 9 11 mph 1017.1mb 85f
10:10pm 1ft 8 9 mph 1016.1mb 85f
9:10pm 1.3ft 7 9 mph 1016.1mb 85f
8:10pm 6ft 7 9 mph 1016.1mb 85f
7:10pm 1ft 9 13 mph 1015.1mb 86f
6:10pm 1ft 9 11 mph 1016.1mb 86f
5:10pm 0.7ft 7 10 mph 1015.1mb 87f
4:10pm 0.7ft 7 10 mph 1016.1mb 87f
3:10pm 0.7ft 9 13 mph 1016.1mb 86f
2:10pm 0.7ft 5 6 mph 1017.1mb 85f
1:10pm 0.7ft 5 6 mph 1017.1mb 85f
12:10pm 0.7ft 3 6 mph 1018.1mb 85f